Lake Sara, Illinois
Current Conditions -  °F | °C
As of 3:35 AM on Monday 24 Nov 2014 (Local Time) from K1H2 Reporting Station
NA  
Wind Chill: 55°   Ceiling: NA
Heat Index: 55°   Visibility: NA
Dew Point: 51°   Wind: 13mph
Humidity: 87%   Direction: 200°SSW
Pressure: 29.16"   Gusts: 18mph
Location:  39.1183°N, 88.6059°W
Report Text: K1H2 240935Z AUTO 20011G16KT 13/11 A2916 RMK AO2 LTG DSNT SE T01300108 PWINO
Loading
Personal Weather Stations






























Interactive Weather Map New forecast layout! Learn more

10-Day Weather Forecast

Advertisements
Track Severe Weather on mobile